sensor_id;sensor_type;location;lat;lon;timestamp;temperature;humidity
30304;DHT22;17112;48.636;10.152;2024-01-30T00:01:52;2.20;69.40
30304;DHT22;17112;48.636;10.152;2024-01-30T00:04:18;2.20;69.20
30304;DHT22;17112;48.636;10.152;2024-01-30T00:06:44;2.20;69.00
30304;DHT22;17112;48.636;10.152;2024-01-30T00:09:10;2.10;68.90
30304;DHT22;17112;48.636;10.152;2024-01-30T00:11:36;2.10;68.80
30304;DHT22;17112;48.636;10.152;2024-01-30T00:14:03;2.10;68.80
30304;DHT22;17112;48.636;10.152;2024-01-30T00:16:28;2.10;68.80
30304;DHT22;17112;48.636;10.152;2024-01-30T00:18:55;2.10;68.90
30304;DHT22;17112;48.636;10.152;2024-01-30T00:21:21;2.00;68.90
30304;DHT22;17112;48.636;10.152;2024-01-30T00:23:47;2.00;69.00
30304;DHT22;17112;48.636;10.152;2024-01-30T00:26:13;2.00;69.10
30304;DHT22;17112;48.636;10.152;2024-01-30T00:28:40;2.00;69.40
30304;DHT22;17112;48.636;10.152;2024-01-30T00:31:06;2.00;69.40
30304;DHT22;17112;48.636;10.152;2024-01-30T00:33:32;2.00;69.30
30304;DHT22;17112;48.636;10.152;2024-01-30T00:35:58;2.00;69.30
30304;DHT22;17112;48.636;10.152;2024-01-30T00:38:23;1.90;69.10
30304;DHT22;17112;48.636;10.152;2024-01-30T00:40:49;1.90;69.10
30304;DHT22;17112;48.636;10.152;2024-01-30T00:43:15;1.90;69.10
30304;DHT22;17112;48.636;10.152;2024-01-30T00:45:43;1.90;69.30
30304;DHT22;17112;48.636;10.152;2024-01-30T00:48:10;1.80;69.30
30304;DHT22;17112;48.636;10.152;2024-01-30T00:50:36;1.90;69.30
30304;DHT22;17112;48.636;10.152;2024-01-30T00:53:01;1.80;69.20
30304;DHT22;17112;48.636;10.152;2024-01-30T00:55:27;1.90;69.40
30304;DHT22;17112;48.636;10.152;2024-01-30T00:57:53;1.80;69.20
30304;DHT22;17112;48.636;10.152;2024-01-30T01:00:18;1.80;69.10
30304;DHT22;17112;48.636;10.152;2024-01-30T01:02:46;1.80;69.10
30304;DHT22;17112;48.636;10.152;2024-01-30T01:05:12;1.80;69.00
30304;DHT22;17112;48.636;10.152;2024-01-30T01:07:37;1.70;69.10
30304;DHT22;17112;48.636;10.152;2024-01-30T01:10:03;1.80;69.10
30304;DHT22;17112;48.636;10.152;2024-01-30T01:12:29;1.70;69.10
30304;DHT22;17112;48.636;10.152;2024-01-30T01:14:55;1.70;69.00
30304;DHT22;17112;48.636;10.152;2024-01-30T01:17:21;1.70;68.90
30304;DHT22;17112;48.636;10.152;2024-01-30T01:19:46;1.70;68.90
30304;DHT22;17112;48.636;10.152;2024-01-30T01:22:12;1.70;68.90
30304;DHT22;17112;48.636;10.152;2024-01-30T01:24:38;1.70;69.10
30304;DHT22;17112;48.636;10.152;2024-01-30T01:27:05;1.70;69.20
30304;DHT22;17112;48.636;10.152;2024-01-30T01:29:31;1.60;69.30
30304;DHT22;17112;48.636;10.152;2024-01-30T01:31:58;1.60;69.40
30304;DHT22;17112;48.636;10.152;2024-01-30T01:34:24;1.60;69.50
30304;DHT22;17112;48.636;10.152;2024-01-30T01:36:50;1.60;69.50
30304;DHT22;17112;48.636;10.152;2024-01-30T01:39:17;1.70;69.60
30304;DHT22;17112;48.636;10.152;2024-01-30T01:41:42;1.70;69.50
30304;DHT22;17112;48.636;10.152;2024-01-30T01:44:08;1.70;69.50
30304;DHT22;17112;48.636;10.152;2024-01-30T01:46:35;1.70;69.60
30304;DHT22;17112;48.636;10.152;2024-01-30T01:49:02;1.70;69.60
30304;DHT22;17112;48.636;10.152;2024-01-30T01:51:31;1.70;69.70
30304;DHT22;17112;48.636;10.152;2024-01-30T01:53:59;1.70;69.60
30304;DHT22;17112;48.636;10.152;2024-01-30T01:56:27;1.70;69.50
30304;DHT22;17112;48.636;10.152;2024-01-30T01:58:55;1.70;69.50
30304;DHT22;17112;48.636;10.152;2024-01-30T02:01:25;1.70;69.50
30304;DHT22;17112;48.636;10.152;2024-01-30T02:03:52;1.70;69.40
30304;DHT22;17112;48.636;10.152;2024-01-30T02:06:18;1.70;69.40
30304;DHT22;17112;48.636;10.152;2024-01-30T02:08:44;1.70;69.40
30304;DHT22;17112;48.636;10.152;2024-01-30T02:11:10;1.70;69.40
30304;DHT22;17112;48.636;10.152;2024-01-30T02:13:37;1.70;69.40
30304;DHT22;17112;48.636;10.152;2024-01-30T02:16:02;1.70;69.50
30304;DHT22;17112;48.636;10.152;2024-01-30T02:18:28;1.70;69.60
30304;DHT22;17112;48.636;10.152;2024-01-30T02:20:56;1.70;69.60
30304;DHT22;17112;48.636;10.152;2024-01-30T02:23:26;1.70;69.70
30304;DHT22;17112;48.636;10.152;2024-01-30T02:25:52;1.70;69.60
30304;DHT22;17112;48.636;10.152;2024-01-30T02:28:19;1.70;69.60
30304;DHT22;17112;48.636;10.152;2024-01-30T02:30:45;1.80;69.60
30304;DHT22;17112;48.636;10.152;2024-01-30T02:33:12;1.80;69.40
30304;DHT22;17112;48.636;10.152;2024-01-30T02:35:37;1.80;69.50
30304;DHT22;17112;48.636;10.152;2024-01-30T02:38:04;1.80;69.70
30304;DHT22;17112;48.636;10.152;2024-01-30T02:40:30;1.80;69.90
30304;DHT22;17112;48.636;10.152;2024-01-30T02:42:56;1.80;69.90
30304;DHT22;17112;48.636;10.152;2024-01-30T02:45:22;1.80;69.90
30304;DHT22;17112;48.636;10.152;2024-01-30T02:47:48;1.80;69.90
30304;DHT22;17112;48.636;10.152;2024-01-30T02:50:13;1.80;70.50
30304;DHT22;17112;48.636;10.152;2024-01-30T02:52:40;1.80;69.70
30304;DHT22;17112;48.636;10.152;2024-01-30T02:55:06;1.80;69.70
30304;DHT22;17112;48.636;10.152;2024-01-30T02:57:32;1.80;69.70
30304;DHT22;17112;48.636;10.152;2024-01-30T02:59:58;1.80;69.70
30304;DHT22;17112;48.636;10.152;2024-01-30T03:02:24;1.80;69.70
30304;DHT22;17112;48.636;10.152;2024-01-30T03:04:49;1.80;69.60
30304;DHT22;17112;48.636;10.152;2024-01-30T03:07:15;1.90;69.60
30304;DHT22;17112;48.636;10.152;2024-01-30T03:09:44;1.80;69.50
30304;DHT22;17112;48.636;10.152;2024-01-30T03:12:10;1.90;69.70
30304;DHT22;17112;48.636;10.152;2024-01-30T03:14:35;1.80;69.70
30304;DHT22;17112;48.636;10.152;2024-01-30T03:17:01;1.80;69.70
30304;DHT22;17112;48.636;10.152;2024-01-30T03:19:27;1.80;69.60
30304;DHT22;17112;48.636;10.152;2024-01-30T03:21:52;1.80;69.60
30304;DHT22;17112;48.636;10.152;2024-01-30T03:24:18;1.80;69.70
30304;DHT22;17112;48.636;10.152;2024-01-30T03:26:44;1.80;69.60
30304;DHT22;17112;48.636;10.152;2024-01-30T03:29:10;1.80;69.70
30304;DHT22;17112;48.636;10.152;2024-01-30T03:31:35;1.80;69.70
30304;DHT22;17112;48.636;10.152;2024-01-30T03:34:02;1.80;69.80
30304;DHT22;17112;48.636;10.152;2024-01-30T03:36:27;1.80;69.90
30304;DHT22;17112;48.636;10.152;2024-01-30T03:38:53;1.80;69.90
30304;DHT22;17112;48.636;10.152;2024-01-30T03:41:19;1.90;70.00
30304;DHT22;17112;48.636;10.152;2024-01-30T03:43:45;1.90;70.10
30304;DHT22;17112;48.636;10.152;2024-01-30T03:46:12;1.90;70.10
30304;DHT22;17112;48.636;10.152;2024-01-30T03:48:38;1.90;70.00
30304;DHT22;17112;48.636;10.152;2024-01-30T03:51:05;1.90;70.00
30304;DHT22;17112;48.636;10.152;2024-01-30T03:53:31;1.90;70.20
30304;DHT22;17112;48.636;10.152;2024-01-30T03:55:56;1.90;70.20
30304;DHT22;17112;48.636;10.152;2024-01-30T03:58:22;2.00;70.10
30304;DHT22;17112;48.636;10.152;2024-01-30T04:00:48;2.00;70.10
30304;DHT22;17112;48.636;10.152;2024-01-30T04:03:17;2.00;70.10
30304;DHT22;17112;48.636;10.152;2024-01-30T04:05:43;2.00;70.40
30304;DHT22;17112;48.636;10.152;2024-01-30T04:08:09;2.00;70.40
30304;DHT22;17112;48.636;10.152;2024-01-30T04:10:35;2.00;70.50
30304;DHT22;17112;48.636;10.152;2024-01-30T04:13:01;2.00;70.50
30304;DHT22;17112;48.636;10.152;2024-01-30T04:15:27;2.10;70.60
30304;DHT22;17112;48.636;10.152;2024-01-30T04:17:53;2.10;70.60
30304;DHT22;17112;48.636;10.152;2024-01-30T04:20:19;2.10;70.60
30304;DHT22;17112;48.636;10.152;2024-01-30T04:22:45;2.10;70.60
30304;DHT22;17112;48.636;10.152;2024-01-30T04:25:12;2.10;70.50
30304;DHT22;17112;48.636;10.152;2024-01-30T04:27:38;2.20;70.50
30304;DHT22;17112;48.636;10.152;2024-01-30T04:30:04;2.20;70.50
30304;DHT22;17112;48.636;10.152;2024-01-30T04:32:30;2.20;70.70
30304;DHT22;17112;48.636;10.152;2024-01-30T04:34:56;2.20;70.80
30304;DHT22;17112;48.636;10.152;2024-01-30T04:37:21;2.20;70.80
30304;DHT22;17112;48.636;10.152;2024-01-30T04:39:47;2.30;70.80
30304;DHT22;17112;48.636;10.152;2024-01-30T04:42:13;2.30;70.80
30304;DHT22;17112;48.636;10.152;2024-01-30T04:44:38;2.30;70.80
30304;DHT22;17112;48.636;10.152;2024-01-30T04:47:04;2.30;70.80
30304;DHT22;17112;48.636;10.152;2024-01-30T04:49:33;2.30;70.90
30304;DHT22;17112;48.636;10.152;2024-01-30T04:51:59;2.30;70.90
30304;DHT22;17112;48.636;10.152;2024-01-30T04:54:24;2.30;70.90
30304;DHT22;17112;48.636;10.152;2024-01-30T04:56:51;2.30;70.90
30304;DHT22;17112;48.636;10.152;2024-01-30T04:59:16;2.30;70.90
30304;DHT22;17112;48.636;10.152;2024-01-30T05:01:42;2.30;71.00
30304;DHT22;17112;48.636;10.152;2024-01-30T05:04:08;2.30;71.20
30304;DHT22;17112;48.636;10.152;2024-01-30T05:06:34;2.30;71.40
30304;DHT22;17112;48.636;10.152;2024-01-30T05:09:00;2.30;71.40
30304;DHT22;17112;48.636;10.152;2024-01-30T05:11:25;2.30;71.60
30304;DHT22;17112;48.636;10.152;2024-01-30T05:13:51;2.30;71.60
30304;DHT22;17112;48.636;10.152;2024-01-30T05:16:17;2.30;71.60
30304;DHT22;17112;48.636;10.152;2024-01-30T05:18:43;2.30;71.70
30304;DHT22;17112;48.636;10.152;2024-01-30T05:21:09;2.30;71.60
30304;DHT22;17112;48.636;10.152;2024-01-30T05:23:35;2.30;71.60
30304;DHT22;17112;48.636;10.152;2024-01-30T05:26:01;2.30;71.60
30304;DHT22;17112;48.636;10.152;2024-01-30T05:28:31;2.30;71.50
30304;DHT22;17112;48.636;10.152;2024-01-30T05:30:57;2.30;71.50
30304;DHT22;17112;48.636;10.152;2024-01-30T05:33:23;2.30;71.50
30304;DHT22;17112;48.636;10.152;2024-01-30T05:35:48;2.30;71.40
30304;DHT22;17112;48.636;10.152;2024-01-30T05:38:15;2.30;71.40
30304;DHT22;17112;48.636;10.152;2024-01-30T05:40:41;2.30;71.40
30304;DHT22;17112;48.636;10.152;2024-01-30T05:43:07;2.20;71.30
30304;DHT22;17112;48.636;10.152;2024-01-30T05:45:33;2.20;71.50
30304;DHT22;17112;48.636;10.152;2024-01-30T05:48:01;2.20;71.50
30304;DHT22;17112;48.636;10.152;2024-01-30T05:50:27;2.20;71.50
30304;DHT22;17112;48.636;10.152;2024-01-30T05:52:52;2.20;71.60
30304;DHT22;17112;48.636;10.152;2024-01-30T05:55:18;2.20;71.60
30304;DHT22;17112;48.636;10.152;2024-01-30T05:57:44;2.20;71.60
30304;DHT22;17112;48.636;10.152;2024-01-30T06:00:10;2.20;71.70
30304;DHT22;17112;48.636;10.152;2024-01-30T06:02:36;2.10;71.60
30304;DHT22;17112;48.636;10.152;2024-01-30T06:05:01;2.10;71.60
30304;DHT22;17112;48.636;10.152;2024-01-30T06:07:27;2.10;71.60
30304;DHT22;17112;48.636;10.152;2024-01-30T06:09:53;2.10;71.60
30304;DHT22;17112;48.636;10.152;2024-01-30T06:12:19;2.10;71.50
30304;DHT22;17112;48.636;10.152;2024-01-30T06:14:44;2.00;71.40
30304;DHT22;17112;48.636;10.152;2024-01-30T06:17:10;2.00;71.40
30304;DHT22;17112;48.636;10.152;2024-01-30T06:19:37;2.00;71.40
30304;DHT22;17112;48.636;10.152;2024-01-30T06:22:04;2.00;71.40
30304;DHT22;17112;48.636;10.152;2024-01-30T06:24:30;2.00;71.30
30304;DHT22;17112;48.636;10.152;2024-01-30T06:26:56;1.90;71.10
30304;DHT22;17112;48.636;10.152;2024-01-30T06:29:21;1.90;71.20
30304;DHT22;17112;48.636;10.152;2024-01-30T06:31:47;1.90;71.40
30304;DHT22;17112;48.636;10.152;2024-01-30T06:34:13;1.90;71.50
30304;DHT22;17112;48.636;10.152;2024-01-30T06:36:39;1.80;71.40
30304;DHT22;17112;48.636;10.152;2024-01-30T06:39:04;1.80;71.50
30304;DHT22;17112;48.636;10.152;2024-01-30T06:41:31;1.80;71.40
30304;DHT22;17112;48.636;10.152;2024-01-30T06:43:56;1.80;71.40
30304;DHT22;17112;48.636;10.152;2024-01-30T06:46:22;1.80;71.40
30304;DHT22;17112;48.636;10.152;2024-01-30T06:48:48;1.80;71.40
30304;DHT22;17112;48.636;10.152;2024-01-30T06:51:14;1.80;71.40
30304;DHT22;17112;48.636;10.152;2024-01-30T06:53:40;1.80;71.40
30304;DHT22;17112;48.636;10.152;2024-01-30T06:56:06;1.80;71.40
30304;DHT22;17112;48.636;10.152;2024-01-30T06:58:31;1.80;71.40
30304;DHT22;17112;48.636;10.152;2024-01-30T07:00:58;1.80;71.40
30304;DHT22;17112;48.636;10.152;2024-01-30T07:03:24;1.80;71.50
30304;DHT22;17112;48.636;10.152;2024-01-30T07:05:49;1.80;71.50
30304;DHT22;17112;48.636;10.152;2024-01-30T07:08:16;1.80;71.60
30304;DHT22;17112;48.636;10.152;2024-01-30T07:10:44;1.80;71.60
30304;DHT22;17112;48.636;10.152;2024-01-30T07:13:13;1.80;71.70
30304;DHT22;17112;48.636;10.152;2024-01-30T07:15:39;1.80;71.80
30304;DHT22;17112;48.636;10.152;2024-01-30T07:18:05;1.80;71.70
30304;DHT22;17112;48.636;10.152;2024-01-30T07:20:31;1.90;71.80
30304;DHT22;17112;48.636;10.152;2024-01-30T07:23:00;1.90;71.80
30304;DHT22;17112;48.636;10.152;2024-01-30T07:25:25;2.00;71.90
30304;DHT22;17112;48.636;10.152;2024-01-30T07:27:52;2.00;72.50
30304;DHT22;17112;48.636;10.152;2024-01-30T07:30:21;2.00;71.70
30304;DHT22;17112;48.636;10.152;2024-01-30T07:32:48;2.10;71.90
30304;DHT22;17112;48.636;10.152;2024-01-30T07:35:14;2.20;71.80
30304;DHT22;17112;48.636;10.152;2024-01-30T07:37:40;2.20;71.90
30304;DHT22;17112;48.636;10.152;2024-01-30T07:40:06;2.30;71.90
30304;DHT22;17112;48.636;10.152;2024-01-30T07:42:33;2.40;72.00
30304;DHT22;17112;48.636;10.152;2024-01-30T07:45:00;2.40;71.90
30304;DHT22;17112;48.636;10.152;2024-01-30T07:47:26;2.50;72.60
30304;DHT22;17112;48.636;10.152;2024-01-30T07:49:52;2.60;71.90
30304;DHT22;17112;48.636;10.152;2024-01-30T07:52:18;2.60;71.90
30304;DHT22;17112;48.636;10.152;2024-01-30T07:54:43;2.70;71.80
30304;DHT22;17112;48.636;10.152;2024-01-30T07:57:09;2.70;71.70
30304;DHT22;17112;48.636;10.152;2024-01-30T07:59:35;2.80;71.70
30304;DHT22;17112;48.636;10.152;2024-01-30T08:02:03;2.80;71.70
30304;DHT22;17112;48.636;10.152;2024-01-30T08:04:28;2.90;71.90
30304;DHT22;17112;48.636;10.152;2024-01-30T08:06:55;3.00;72.00
30304;DHT22;17112;48.636;10.152;2024-01-30T08:09:21;3.00;71.90
30304;DHT22;17112;48.636;10.152;2024-01-30T08:11:46;3.10;71.90
30304;DHT22;17112;48.636;10.152;2024-01-30T08:14:12;3.20;71.90
30304;DHT22;17112;48.636;10.152;2024-01-30T08:16:39;3.30;71.90
30304;DHT22;17112;48.636;10.152;2024-01-30T08:19:04;3.40;71.80
30304;DHT22;17112;48.636;10.152;2024-01-30T08:21:30;3.50;71.90
30304;DHT22;17112;48.636;10.152;2024-01-30T08:24:04;3.60;71.80
30304;DHT22;17112;48.636;10.152;2024-01-30T08:26:31;3.80;71.80
30304;DHT22;17112;48.636;10.152;2024-01-30T08:28:57;3.90;71.70
30304;DHT22;17112;48.636;10.152;2024-01-30T08:31:23;4.00;71.60
30304;DHT22;17112;48.636;10.152;2024-01-30T08:33:49;4.10;71.50
30304;DHT22;17112;48.636;10.152;2024-01-30T08:36:16;4.20;71.40
30304;DHT22;17112;48.636;10.152;2024-01-30T08:38:41;4.30;71.30
30304;DHT22;17112;48.636;10.152;2024-01-30T08:41:07;4.40;70.70
30304;DHT22;17112;48.636;10.152;2024-01-30T08:43:33;4.60;71.30
30304;DHT22;17112;48.636;10.152;2024-01-30T08:46:02;4.70;71.70
30304;DHT22;17112;48.636;10.152;2024-01-30T08:48:29;4.70;70.80
30304;DHT22;17112;48.636;10.152;2024-01-30T08:50:54;4.80;70.80
30304;DHT22;17112;48.636;10.152;2024-01-30T08:53:20;4.90;70.60
30304;DHT22;17112;48.636;10.152;2024-01-30T08:55:46;5.00;70.40
30304;DHT22;17112;48.636;10.152;2024-01-30T08:58:11;5.00;70.40
30304;DHT22;17112;48.636;10.152;2024-01-30T09:00:37;5.10;70.50
30304;DHT22;17112;48.636;10.152;2024-01-30T09:03:05;5.20;70.60
30304;DHT22;17112;48.636;10.152;2024-01-30T09:05:31;5.20;70.60
30304;DHT22;17112;48.636;10.152;2024-01-30T09:07:57;5.30;70.60
30304;DHT22;17112;48.636;10.152;2024-01-30T09:10:22;5.50;70.70
30304;DHT22;17112;48.636;10.152;2024-01-30T09:12:48;5.50;70.50
30304;DHT22;17112;48.636;10.152;2024-01-30T09:15:14;5.70;70.50
30304;DHT22;17112;48.636;10.152;2024-01-30T09:17:40;5.80;70.30
30304;DHT22;17112;48.636;10.152;2024-01-30T09:20:06;5.90;70.20
30304;DHT22;17112;48.636;10.152;2024-01-30T09:22:32;6.00;69.80
30304;DHT22;17112;48.636;10.152;2024-01-30T09:24:58;6.00;69.50
30304;DHT22;17112;48.636;10.152;2024-01-30T09:27:23;6.10;69.50
30304;DHT22;17112;48.636;10.152;2024-01-30T09:29:49;6.20;69.40
30304;DHT22;17112;48.636;10.152;2024-01-30T09:32:15;6.20;69.20
30304;DHT22;17112;48.636;10.152;2024-01-30T09:34:41;6.30;69.00
30304;DHT22;17112;48.636;10.152;2024-01-30T09:37:07;6.30;68.70
30304;DHT22;17112;48.636;10.152;2024-01-30T09:39:33;6.30;68.70
30304;DHT22;17112;48.636;10.152;2024-01-30T09:44:35;6.30;68.30
30304;DHT22;17112;48.636;10.152;2024-01-30T09:47:02;6.30;68.40
30304;DHT22;17112;48.636;10.152;2024-01-30T09:49:34;6.30;68.70
30304;DHT22;17112;48.636;10.152;2024-01-30T09:52:05;6.40;68.90
30304;DHT22;17112;48.636;10.152;2024-01-30T09:54:31;6.30;69.00
30304;DHT22;17112;48.636;10.152;2024-01-30T09:56:59;6.40;69.10
30304;DHT22;17112;48.636;10.152;2024-01-30T09:59:25;6.50;69.10
30304;DHT22;17112;48.636;10.152;2024-01-30T10:01:51;6.60;69.20
30304;DHT22;17112;48.636;10.152;2024-01-30T10:04:17;6.60;69.10
30304;DHT22;17112;48.636;10.152;2024-01-30T10:06:43;6.70;69.00
30304;DHT22;17112;48.636;10.152;2024-01-30T10:09:09;6.80;68.90
30304;DHT22;17112;48.636;10.152;2024-01-30T10:11:38;6.80;68.80
30304;DHT22;17112;48.636;10.152;2024-01-30T10:14:04;6.90;68.70
30304;DHT22;17112;48.636;10.152;2024-01-30T10:16:30;6.90;68.50
30304;DHT22;17112;48.636;10.152;2024-01-30T10:18:56;7.00;68.40
30304;DHT22;17112;48.636;10.152;2024-01-30T10:21:22;7.10;68.30
30304;DHT22;17112;48.636;10.152;2024-01-30T10:23:47;7.10;68.30
30304;DHT22;17112;48.636;10.152;2024-01-30T10:26:15;7.10;68.30
30304;DHT22;17112;48.636;10.152;2024-01-30T10:28:41;7.10;68.20
30304;DHT22;17112;48.636;10.152;2024-01-30T10:31:07;7.10;68.10
30304;DHT22;17112;48.636;10.152;2024-01-30T10:33:33;7.10;68.20
30304;DHT22;17112;48.636;10.152;2024-01-30T10:36:03;7.20;68.30
30304;DHT22;17112;48.636;10.152;2024-01-30T10:38:31;7.30;68.40
30304;DHT22;17112;48.636;10.152;2024-01-30T10:40:59;7.30;68.40
30304;DHT22;17112;48.636;10.152;2024-01-30T10:43:35;7.40;68.40
30304;DHT22;17112;48.636;10.152;2024-01-30T10:46:18;7.50;68.30
30304;DHT22;17112;48.636;10.152;2024-01-30T10:48:50;7.60;68.40
30304;DHT22;17112;48.636;10.152;2024-01-30T10:51:16;7.70;68.50
30304;DHT22;17112;48.636;10.152;2024-01-30T10:53:46;7.80;68.60
30304;DHT22;17112;48.636;10.152;2024-01-30T10:56:13;7.90;68.60
30304;DHT22;17112;48.636;10.152;2024-01-30T10:58:39;8.00;68.50
30304;DHT22;17112;48.636;10.152;2024-01-30T11:01:06;8.20;68.60
30304;DHT22;17112;48.636;10.152;2024-01-30T11:03:33;8.30;68.70
30304;DHT22;17112;48.636;10.152;2024-01-30T11:06:02;8.40;68.30
30304;DHT22;17112;48.636;10.152;2024-01-30T11:08:28;8.60;68.30
30304;DHT22;17112;48.636;10.152;2024-01-30T11:10:58;8.70;68.00
30304;DHT22;17112;48.636;10.152;2024-01-30T11:13:29;8.90;67.80
30304;DHT22;17112;48.636;10.152;2024-01-30T11:15:54;9.00;67.50
30304;DHT22;17112;48.636;10.152;2024-01-30T11:18:26;9.10;67.40
30304;DHT22;17112;48.636;10.152;2024-01-30T11:20:56;9.20;67.20
30304;DHT22;17112;48.636;10.152;2024-01-30T11:23:23;9.30;67.20
30304;DHT22;17112;48.636;10.152;2024-01-30T11:25:48;9.40;67.10
30304;DHT22;17112;48.636;10.152;2024-01-30T11:28:15;9.50;66.90
30304;DHT22;17112;48.636;10.152;2024-01-30T11:30:42;9.60;66.60
30304;DHT22;17112;48.636;10.152;2024-01-30T11:33:09;9.60;66.40
30304;DHT22;17112;48.636;10.152;2024-01-30T11:35:38;9.60;66.20
30304;DHT22;17112;48.636;10.152;2024-01-30T11:38:08;9.70;66.20
30304;DHT22;17112;48.636;10.152;2024-01-30T11:40:36;9.70;66.00
30304;DHT22;17112;48.636;10.152;2024-01-30T11:43:04;9.70;65.90
30304;DHT22;17112;48.636;10.152;2024-01-30T11:45:30;9.70;66.00
30304;DHT22;17112;48.636;10.152;2024-01-30T11:47:57;9.70;66.00
30304;DHT22;17112;48.636;10.152;2024-01-30T11:50:24;9.70;65.90
30304;DHT22;17112;48.636;10.152;2024-01-30T11:52:50;9.80;66.00
30304;DHT22;17112;48.636;10.152;2024-01-30T11:55:16;9.90;66.00
30304;DHT22;17112;48.636;10.152;2024-01-30T11:57:43;9.90;66.00
30304;DHT22;17112;48.636;10.152;2024-01-30T12:00:19;9.90;66.10
30304;DHT22;17112;48.636;10.152;2024-01-30T12:02:50;10.00;65.90
30304;DHT22;17112;48.636;10.152;2024-01-30T12:05:16;10.10;65.90
30304;DHT22;17112;48.636;10.152;2024-01-30T12:07:44;10.10;65.80
30304;DHT22;17112;48.636;10.152;2024-01-30T12:10:12;10.20;65.70
30304;DHT22;17112;48.636;10.152;2024-01-30T12:12:40;10.30;65.40
30304;DHT22;17112;48.636;10.152;2024-01-30T12:15:07;10.30;65.20
30304;DHT22;17112;48.636;10.152;2024-01-30T12:17:34;10.40;65.10
30304;DHT22;17112;48.636;10.152;2024-01-30T12:20:08;10.40;65.10
30304;DHT22;17112;48.636;10.152;2024-01-30T12:22:41;10.50;65.00
30304;DHT22;17112;48.636;10.152;2024-01-30T12:25:12;10.50;65.00
30304;DHT22;17112;48.636;10.152;2024-01-30T12:27:39;10.60;64.90
30304;DHT22;17112;48.636;10.152;2024-01-30T12:30:08;10.60;64.70
30304;DHT22;17112;48.636;10.152;2024-01-30T12:32:42;10.70;64.80
30304;DHT22;17112;48.636;10.152;2024-01-30T12:35:13;10.70;64.60
30304;DHT22;17112;48.636;10.152;2024-01-30T12:37:40;10.80;64.70
30304;DHT22;17112;48.636;10.152;2024-01-30T12:40:07;10.80;64.50
30304;DHT22;17112;48.636;10.152;2024-01-30T12:42:33;10.90;64.50
30304;DHT22;17112;48.636;10.152;2024-01-30T12:44:59;10.90;64.50
30304;DHT22;17112;48.636;10.152;2024-01-30T12:47:25;10.90;64.40
30304;DHT22;17112;48.636;10.152;2024-01-30T12:49:51;11.00;64.50
30304;DHT22;17112;48.636;10.152;2024-01-30T12:52:20;11.10;64.30
30304;DHT22;17112;48.636;10.152;2024-01-30T12:54:49;11.10;64.20
30304;DHT22;17112;48.636;10.152;2024-01-30T12:57:16;11.10;63.90
30304;DHT22;17112;48.636;10.152;2024-01-30T12:59:45;11.20;63.90
30304;DHT22;17112;48.636;10.152;2024-01-30T13:02:12;11.20;63.70
30304;DHT22;17112;48.636;10.152;2024-01-30T13:04:38;11.30;63.80
30304;DHT22;17112;48.636;10.152;2024-01-30T13:07:04;11.30;63.70
30304;DHT22;17112;48.636;10.152;2024-01-30T13:09:30;11.30;63.60
30304;DHT22;17112;48.636;10.152;2024-01-30T13:11:57;11.30;63.50
30304;DHT22;17112;48.636;10.152;2024-01-30T13:14:22;11.40;63.30
30304;DHT22;17112;48.636;10.152;2024-01-30T13:16:48;11.40;63.90
30304;DHT22;17112;48.636;10.152;2024-01-30T13:19:14;11.40;63.00
30304;DHT22;17112;48.636;10.152;2024-01-30T13:21:39;11.40;63.20
30304;DHT22;17112;48.636;10.152;2024-01-30T13:24:05;11.40;63.00
30304;DHT22;17112;48.636;10.152;2024-01-30T13:26:34;11.40;63.00
30304;DHT22;17112;48.636;10.152;2024-01-30T13:29:00;11.40;63.00
30304;DHT22;17112;48.636;10.152;2024-01-30T13:31:27;11.40;63.20
30304;DHT22;17112;48.636;10.152;2024-01-30T13:33:53;11.40;63.20
30304;DHT22;17112;48.636;10.152;2024-01-30T13:36:19;11.50;63.30
30304;DHT22;17112;48.636;10.152;2024-01-30T13:38:46;11.50;63.30
30304;DHT22;17112;48.636;10.152;2024-01-30T13:41:12;11.50;63.20
30304;DHT22;17112;48.636;10.152;2024-01-30T13:43:37;11.60;63.20
30304;DHT22;17112;48.636;10.152;2024-01-30T13:46:03;11.60;63.20
30304;DHT22;17112;48.636;10.152;2024-01-30T13:48:29;11.70;63.10
30304;DHT22;17112;48.636;10.152;2024-01-30T13:50:55;11.70;63.10
30304;DHT22;17112;48.636;10.152;2024-01-30T13:53:21;11.70;63.00
30304;DHT22;17112;48.636;10.152;2024-01-30T13:55:47;11.80;62.80
30304;DHT22;17112;48.636;10.152;2024-01-30T13:58:12;11.80;62.70
30304;DHT22;17112;48.636;10.152;2024-01-30T14:00:38;11.80;62.50
30304;DHT22;17112;48.636;10.152;2024-01-30T14:03:04;11.80;62.40
30304;DHT22;17112;48.636;10.152;2024-01-30T14:05:30;11.80;62.30
30304;DHT22;17112;48.636;10.152;2024-01-30T14:07:57;11.80;62.40
30304;DHT22;17112;48.636;10.152;2024-01-30T14:10:23;11.90;62.50
30304;DHT22;17112;48.636;10.152;2024-01-30T14:12:48;11.90;62.50
30304;DHT22;17112;48.636;10.152;2024-01-30T14:15:14;11.90;62.40
30304;DHT22;17112;48.636;10.152;2024-01-30T14:17:41;12.00;62.30
30304;DHT22;17112;48.636;10.152;2024-01-30T14:20:07;12.00;62.20
30304;DHT22;17112;48.636;10.152;2024-01-30T14:22:36;12.00;62.00
30304;DHT22;17112;48.636;10.152;2024-01-30T14:25:02;12.00;61.80
30304;DHT22;17112;48.636;10.152;2024-01-30T14:27:31;12.00;61.80
30304;DHT22;17112;48.636;10.152;2024-01-30T14:29:57;12.00;61.70
30304;DHT22;17112;48.636;10.152;2024-01-30T14:32:24;12.00;61.70
30304;DHT22;17112;48.636;10.152;2024-01-30T14:34:50;11.90;61.70
30304;DHT22;17112;48.636;10.152;2024-01-30T14:37:16;11.90;61.70
30304;DHT22;17112;48.636;10.152;2024-01-30T14:39:42;11.80;61.70
30304;DHT22;17112;48.636;10.152;2024-01-30T14:42:08;11.80;61.80
30304;DHT22;17112;48.636;10.152;2024-01-30T14:44:33;11.70;61.80
30304;DHT22;17112;48.636;10.152;2024-01-30T14:47:00;11.70;61.90
30304;DHT22;17112;48.636;10.152;2024-01-30T14:49:26;11.70;61.90
30304;DHT22;17112;48.636;10.152;2024-01-30T14:51:51;11.70;62.00
30304;DHT22;17112;48.636;10.152;2024-01-30T14:54:17;11.60;62.00
30304;DHT22;17112;48.636;10.152;2024-01-30T14:56:44;11.60;62.10
30304;DHT22;17112;48.636;10.152;2024-01-30T14:59:10;11.60;62.20
30304;DHT22;17112;48.636;10.152;2024-01-30T15:01:35;11.50;62.10
30304;DHT22;17112;48.636;10.152;2024-01-30T15:04:01;11.50;62.20
30304;DHT22;17112;48.636;10.152;2024-01-30T15:06:28;11.50;62.30
30304;DHT22;17112;48.636;10.152;2024-01-30T15:08:54;11.40;62.40
30304;DHT22;17112;48.636;10.152;2024-01-30T15:11:19;11.40;62.50
30304;DHT22;17112;48.636;10.152;2024-01-30T15:13:48;11.30;62.50
30304;DHT22;17112;48.636;10.152;2024-01-30T15:16:14;11.30;62.50
30304;DHT22;17112;48.636;10.152;2024-01-30T15:18:39;11.30;62.70
30304;DHT22;17112;48.636;10.152;2024-01-30T15:21:05;11.20;62.70
30304;DHT22;17112;48.636;10.152;2024-01-30T15:23:31;11.20;62.70
30304;DHT22;17112;48.636;10.152;2024-01-30T15:25:56;11.20;62.70